Time;durP1;ratioP1;P1;durP2;ratioP2;P2;SDS_P1;SDS_P2;PMS_P1;PMS_P2;Temp;Humidity;BMP_temperature;BMP_pressure;BME280_temperature;BME280_humidity;BME280_pressure;Samples;Min_cycle;Max_cycle;Signal;HPM_P1;HPM_P2
2022/02/06 00:00:50;;;;;;;15.03;5.63;;;2.70;99.90;;;;;;4455019;32;20229;-69
2022/02/06 00:03:17;;;;;;;16.93;6.20;;;2.70;99.90;;;;;;4456307;32;20154;-68
2022/02/06 00:05:48;;;;;;;13.67;5.50;;;2.70;99.90;;;;;;4441338;32;20174;-69
2022/02/06 00:08:15;;;;;;;16.10;5.53;;;2.70;99.90;;;;;;4441558;32;20166;-69
2022/02/06 00:10:42;;;;;;;13.37;5.80;;;2.70;99.90;;;;;;4441266;32;20204;-68
2022/02/06 00:13:09;;;;;;;11.77;5.63;;;2.80;99.90;;;;;;4442199;32;20192;-68
2022/02/06 00:15:36;;;;;;;11.63;5.20;;;2.80;99.90;;;;;;4441317;32;20173;-68
2022/02/06 00:18:03;;;;;;;13.47;5.40;;;2.80;99.90;;;;;;4442564;32;20442;-68
2022/02/06 00:20:34;;;;;;;12.17;5.33;;;2.80;99.90;;;;;;4429017;32;20215;-68
2022/02/06 00:23:06;;;;;;;14.53;5.13;;;2.80;99.90;;;;;;4429459;32;20214;-68
2022/02/06 00:28:38;;;;;;;13.10;5.40;;;2.80;99.90;;;;;;4442529;32;20635;-68
2022/02/06 00:39:05;;;;;;;13.13;5.37;;;2.80;99.90;;;;;;4440326;32;20528;-68
2022/02/06 00:41:34;;;;;;;13.23;5.10;;;2.80;99.90;;;;;;4440436;32;20249;-68
2022/02/06 00:44:02;;;;;;;14.67;5.63;;;2.80;99.90;;;;;;4440263;32;20170;-68
2022/02/06 00:46:36;;;;;;;11.83;5.03;;;2.80;99.90;;;;;;4440534;32;20210;-69
2022/02/06 00:49:14;;;;;;;12.47;5.00;;;2.80;99.90;;;;;;4441946;32;20182;-68
2022/02/06 00:54:09;;;;;;;14.40;5.60;;;2.80;99.90;;;;;;4440666;32;20185;-69
2022/02/06 00:56:39;;;;;;;11.93;5.00;;;2.80;99.90;;;;;;4440727;32;20193;-69
2022/02/06 00:59:06;;;;;;;11.90;5.07;;;2.80;99.90;;;;;;4440566;32;20189;-69
2022/02/06 01:01:33;;;;;;;18.63;5.37;;;2.80;99.90;;;;;;4441500;32;20185;-69
2022/02/06 01:04:01;;;;;;;13.57;5.23;;;2.80;99.90;;;;;;4441502;32;20226;-69
2022/02/06 01:06:28;;;;;;;11.77;5.03;;;2.80;99.90;;;;;;4441023;32;20174;-69
2022/02/06 01:08:55;;;;;;;12.30;5.23;;;2.80;99.90;;;;;;4440874;32;20182;-68
2022/02/06 01:11:22;;;;;;;11.87;5.07;;;2.80;99.90;;;;;;4440001;32;20178;-68
2022/02/06 01:13:58;;;;;;;12.87;5.40;;;2.80;99.90;;;;;;4454721;32;20161;-69
2022/02/06 01:16:54;;;;;;;11.90;4.97;;;2.80;99.90;;;;;;4454064;32;20195;-68
2022/02/06 01:19:21;;;;;;;9.70;4.83;;;2.80;99.90;;;;;;4439240;32;20201;-68
2022/02/06 01:22:01;;;;;;;13.27;5.00;;;2.80;99.90;;;;;;4440433;32;20212;-68
2022/02/06 01:27:18;;;;;;;12.13;5.17;;;2.80;99.90;;;;;;4428007;32;20174;-68
2022/02/06 01:29:55;;;;;;;9.57;4.90;;;2.80;99.90;;;;;;4455293;32;20149;-68
2022/02/06 01:32:29;;;;;;;11.43;5.03;;;2.70;99.90;;;;;;4440484;32;20177;-68
2022/02/06 01:35:05;;;;;;;12.77;5.20;;;2.70;99.90;;;;;;4440243;32;20226;-68
2022/02/06 01:37:41;;;;;;;15.70;5.17;;;2.70;99.90;;;;;;4440510;32;20175;-68
2022/02/06 01:43:02;;;;;;;11.63;4.97;;;2.70;99.90;;;;;;4422175;32;20154;-68
2022/02/06 02:05:44;;;;;;;16.77;5.47;;;2.50;99.90;;;;;;4379146;32;20183;-68
2022/02/06 02:18:44;;;;;;;14.70;5.37;;;2.40;99.90;;;;;;4393444;32;20167;-68
2022/02/06 02:26:42;;;;;;;13.03;5.53;;;2.40;99.90;;;;;;4450749;32;20177;-68
2022/02/06 02:43:03;;;;;;;13.77;5.30;;;2.40;99.90;;;;;;4443564;32;20583;-68
2022/02/06 02:48:02;;;;;;;9.33;4.50;;;2.40;99.90;;;;;;4442495;32;20236;-68
2022/02/06 02:50:33;;;;;;;10.00;4.57;;;2.40;99.90;;;;;;4456473;32;20484;-68
2022/02/06 02:55:47;;;;;;;9.53;4.47;;;2.50;99.90;;;;;;4455461;32;20253;-68
2022/02/06 03:03:34;;;;;;;9.73;4.70;;;2.50;99.90;;;;;;4443202;32;20177;-68
2022/02/06 03:06:03;;;;;;;12.60;4.73;;;2.50;99.90;;;;;;4442279;32;20205;-68
2022/02/06 03:08:33;;;;;;;9.13;3.97;;;2.40;99.90;;;;;;4442221;32;20229;-68
2022/02/06 03:11:06;;;;;;;10.00;4.57;;;2.40;99.90;;;;;;4457458;32;20201;-68
2022/02/06 03:13:39;;;;;;;10.10;4.40;;;2.40;99.90;;;;;;4442032;32;20483;-68
2022/02/06 03:18:48;;;;;;;9.17;4.40;;;2.50;99.90;;;;;;4442374;32;20520;-68
2022/02/06 03:21:21;;;;;;;12.13;4.73;;;2.50;99.90;;;;;;4455876;32;20173;-68
2022/02/06 03:23:51;;;;;;;8.83;4.23;;;2.50;99.90;;;;;;4442078;32;20197;-68
2022/02/06 03:26:19;;;;;;;10.17;4.53;;;2.50;99.90;;;;;;4441828;32;20174;-68
2022/02/06 03:28:47;;;;;;;6.97;4.13;;;2.50;99.90;;;;;;4442300;32;20455;-68
2022/02/06 03:31:14;;;;;;;7.63;4.10;;;2.50;99.90;;;;;;4441127;32;20185;-68
2022/02/06 03:33:42;;;;;;;11.73;4.93;;;2.50;99.90;;;;;;4441327;32;20209;-68
2022/02/06 03:36:10;;;;;;;11.53;4.33;;;2.50;99.90;;;;;;4441148;32;20174;-68
2022/02/06 03:38:37;;;;;;;7.37;4.27;;;2.50;99.90;;;;;;4441487;32;20181;-68
2022/02/06 03:41:10;;;;;;;10.30;4.17;;;2.50;99.90;;;;;;4442448;32;20173;-68
2022/02/06 03:43:50;;;;;;;11.57;4.50;;;2.40;99.90;;;;;;4455623;32;20394;-68
2022/02/06 03:46:26;;;;;;;9.60;4.30;;;2.40;99.90;;;;;;4441370;32;20441;-68
2022/02/06 03:49:27;;;;;;;7.40;4.47;;;2.40;99.90;;;;;;4441495;32;20178;-68
2022/02/06 03:51:41;;;;;;;8.50;4.63;;;2.40;99.90;;;;;;4457186;32;20415;-68
2022/02/06 03:54:10;;;;;;;7.77;4.17;;;2.40;99.90;;;;;;4442162;32;20177;-68
2022/02/06 03:56:39;;;;;;;10.17;4.27;;;2.40;99.90;;;;;;4442793;32;20171;-68
2022/02/06 03:59:07;;;;;;;8.40;4.17;;;2.40;99.90;;;;;;4441564;32;20176;-68
2022/02/06 04:01:33;;;;;;;7.83;4.23;;;2.40;99.90;;;;;;4440611;32;20200;-68
2022/02/06 04:04:00;;;;;;;8.30;4.30;;;2.40;99.90;;;;;;4441593;32;20403;-68
2022/02/06 04:06:28;;;;;;;9.10;4.40;;;2.40;99.90;;;;;;4442039;32;20178;-68
2022/02/06 04:08:57;;;;;;;10.93;4.60;;;2.40;99.90;;;;;;4455680;32;20184;-68
2022/02/06 04:11:45;;;;;;;7.73;4.03;;;2.40;99.90;;;;;;4442289;32;20531;-69
2022/02/06 04:14:28;;;;;;;11.27;4.40;;;2.40;99.90;;;;;;4455098;32;20185;-68
2022/02/06 04:16:59;;;;;;;8.70;4.43;;;2.40;99.90;;;;;;4455567;32;20142;-68
2022/02/06 04:19:26;;;;;;;11.00;4.90;;;2.30;99.90;;;;;;4441389;32;20170;-68
2022/02/06 04:21:55;;;;;;;10.93;4.57;;;2.30;99.90;;;;;;4440430;32;20527;-68
2022/02/06 04:24:26;;;;;;;10.93;4.40;;;2.30;99.90;;;;;;4455288;32;20472;-68
2022/02/06 04:26:54;;;;;;;7.50;4.30;;;2.30;99.90;;;;;;4441315;32;20433;-68
2022/02/06 04:29:21;;;;;;;8.33;4.27;;;2.30;99.90;;;;;;4442006;32;20516;-68
2022/02/06 04:31:50;;;;;;;8.87;4.00;;;2.30;99.90;;;;;;4440535;32;20524;-68
2022/02/06 04:34:22;;;;;;;11.43;4.53;;;2.30;99.90;;;;;;4440892;32;20182;-68
2022/02/06 05:27:29;;;;;;;11.77;4.77;;;2.20;99.90;;;;;;4443794;32;20560;-68
2022/02/06 05:30:11;;;;;;;7.67;4.27;;;2.20;99.90;;;;;;4443087;32;20539;-68
2022/02/06 05:32:48;;;;;;;6.70;4.03;;;2.10;99.90;;;;;;4443984;32;20204;-69
2022/02/06 05:35:15;;;;;;;9.87;4.30;;;2.10;99.90;;;;;;4445129;32;20201;-68
2022/02/06 05:37:42;;;;;;;6.80;3.87;;;2.20;99.90;;;;;;4445115;32;20538;-69
2022/02/06 05:40:10;;;;;;;8.83;4.27;;;2.10;99.90;;;;;;4444858;32;20471;-68
2022/02/06 05:42:36;;;;;;;9.93;4.30;;;2.20;99.90;;;;;;4444537;32;20527;-68
2022/02/06 05:45:04;;;;;;;7.73;3.83;;;2.20;99.90;;;;;;4443329;32;20205;-68
2022/02/06 05:47:33;;;;;;;7.40;4.03;;;2.20;99.90;;;;;;4442692;32;20170;-68
2022/02/06 05:50:00;;;;;;;7.73;3.77;;;2.20;99.90;;;;;;4443122;32;20169;-68
2022/02/06 05:52:27;;;;;;;8.07;3.93;;;2.20;99.90;;;;;;4443293;32;20181;-69
2022/02/06 05:54:54;;;;;;;9.33;3.70;;;2.20;99.90;;;;;;4442673;32;20186;-69
2022/02/06 05:57:22;;;;;;;10.57;4.37;;;2.20;99.90;;;;;;4443667;32;20174;-69
2022/02/06 05:59:49;;;;;;;7.07;3.90;;;2.20;99.90;;;;;;4443268;32;20209;-68
2022/02/06 06:02:17;;;;;;;7.60;3.70;;;2.20;99.90;;;;;;4437310;32;20222;-68
2022/02/06 06:04:44;;;;;;;7.50;3.77;;;2.30;99.90;;;;;;4442926;32;20174;-69
2022/02/06 06:07:11;;;;;;;11.07;3.77;;;2.20;99.90;;;;;;4458962;32;20138;-68
2022/02/06 06:09:37;;;;;;;7.77;3.90;;;2.20;99.90;;;;;;4443731;32;20184;-68
2022/02/06 06:12:05;;;;;;;11.97;4.23;;;2.30;99.90;;;;;;4443729;32;20269;-68
2022/02/06 06:14:32;;;;;;;8.90;3.70;;;2.20;99.90;;;;;;4442621;32;20204;-69
2022/02/06 06:16:59;;;;;;;13.07;3.87;;;2.30;99.90;;;;;;4443342;32;20185;-68
2022/02/06 06:19:26;;;;;;;8.10;3.60;;;2.30;99.90;;;;;;4443108;32;20186;-69
2022/02/06 06:21:55;;;;;;;7.87;3.70;;;2.30;99.90;;;;;;4443857;32;20169;-68
2022/02/06 06:24:24;;;;;;;7.03;3.57;;;2.30;99.90;;;;;;4444112;32;20186;-68
2022/02/06 06:26:52;;;;;;;9.20;4.13;;;2.30;99.90;;;;;;4442766;32;20174;-69
2022/02/06 06:29:20;;;;;;;9.80;3.70;;;2.30;99.90;;;;;;4444301;32;20547;-69
2022/02/06 06:31:47;;;;;;;7.13;3.33;;;2.30;99.90;;;;;;4442369;32;20217;-70
2022/02/06 06:34:15;;;;;;;7.10;3.53;;;2.30;99.90;;;;;;4441921;32;20205;-69
2022/02/06 06:36:46;;;;;;;6.70;3.70;;;2.30;99.90;;;;;;4442185;32;20203;-69
2022/02/06 06:39:20;;;;;;;8.37;4.03;;;2.30;99.90;;;;;;4442195;32;20213;-69
2022/02/06 06:41:58;;;;;;;11.27;4.50;;;2.30;99.90;;;;;;4458156;32;20137;-69
2022/02/06 06:44:25;;;;;;;7.47;3.70;;;2.30;99.90;;;;;;4442053;32;20178;-69
2022/02/06 06:46:52;;;;;;;10.30;3.80;;;2.30;99.90;;;;;;4458280;32;20419;-69
2022/02/06 06:49:19;;;;;;;8.33;3.80;;;2.30;99.90;;;;;;4442867;32;20195;-69
2022/02/06 06:51:46;;;;;;;6.53;3.63;;;2.20;99.90;;;;;;4457290;32;20153;-68
2022/02/06 06:54:20;;;;;;;6.73;4.10;;;2.20;99.90;;;;;;4443799;32;20178;-68
2022/02/06 06:56:55;;;;;;;8.07;3.90;;;2.30;99.90;;;;;;4442872;32;20178;-68
2022/02/06 06:59:42;;;;;;;6.70;3.90;;;2.20;99.90;;;;;;4441969;32;20204;-69
2022/02/06 07:05:06;;;;;;;8.00;3.90;;;2.30;99.90;;;;;;4388026;32;20559;-68
2022/02/06 07:07:34;;;;;;;8.93;3.70;;;2.30;99.90;;;;;;4380480;32;20207;-68
2022/02/06 07:10:02;;;;;;;9.17;4.00;;;2.30;99.90;;;;;;4381228;32;20179;-69
2022/02/06 07:12:29;;;;;;;8.10;4.17;;;2.30;99.90;;;;;;4379591;32;20198;-69
2022/02/06 07:14:56;;;;;;;8.63;3.70;;;2.40;99.90;;;;;;4380689;32;20253;-68
2022/02/06 07:17:23;;;;;;;8.20;3.77;;;2.30;99.90;;;;;;4381059;32;20180;-69
2022/02/06 07:19:50;;;;;;;8.70;4.00;;;2.40;99.90;;;;;;4392554;32;20152;-68
2022/02/06 07:22:19;;;;;;;8.93;3.90;;;2.40;99.90;;;;;;4381402;32;20444;-69
2022/02/06 07:24:48;;;;;;;6.20;3.67;;;2.40;99.90;;;;;;4380650;32;20191;-69
2022/02/06 07:27:25;;;;;;;8.50;3.93;;;2.40;99.90;;;;;;4393392;32;20235;-68
2022/02/06 07:29:52;;;;;;;5.63;3.57;;;2.40;99.90;;;;;;4380683;32;20187;-69
2022/02/06 07:32:20;;;;;;;7.20;4.10;;;2.40;99.90;;;;;;4379174;32;20234;-69
2022/02/06 07:34:47;;;;;;;10.77;4.33;;;2.50;99.90;;;;;;4379731;32;20227;-69
2022/02/06 07:37:14;;;;;;;7.77;3.90;;;2.50;99.90;;;;;;4379667;32;20202;-70
2022/02/06 07:39:41;;;;;;;6.80;3.70;;;2.40;99.90;;;;;;4379089;32;20214;-69
2022/02/06 07:42:10;;;;;;;6.93;3.90;;;2.50;99.90;;;;;;4423350;32;20173;-69
2022/02/06 07:44:37;;;;;;;8.53;4.13;;;2.50;99.90;;;;;;4441222;32;20178;-68
2022/02/06 07:47:13;;;;;;;7.50;4.03;;;2.50;99.90;;;;;;4442268;32;20681;-69
2022/02/06 07:49:43;;;;;;;11.03;3.90;;;2.50;99.90;;;;;;4441523;32;20174;-69
2022/02/06 07:52:11;;;;;;;8.23;4.10;;;2.50;99.90;;;;;;4455907;32;20166;-69
2022/02/06 07:54:38;;;;;;;7.77;3.97;;;2.60;99.90;;;;;;4455863;32;20488;-69
2022/02/06 07:57:05;;;;;;;7.27;3.97;;;2.50;99.90;;;;;;4455406;32;20137;-69
2022/02/06 07:59:35;;;;;;;9.97;3.93;;;2.60;99.90;;;;;;4441224;32;20178;-68
2022/02/06 08:02:04;;;;;;;8.10;3.73;;;2.50;99.90;;;;;;4439869;32;20177;-68
2022/02/06 08:04:33;;;;;;;7.57;4.00;;;2.50;99.90;;;;;;4440205;32;20227;-68
2022/02/06 08:07:01;;;;;;;8.83;4.03;;;2.60;99.90;;;;;;4441075;32;20170;-69
2022/02/06 08:12:10;;;;;;;10.43;4.17;;;2.50;99.90;;;;;;4442232;32;20232;-68
2022/02/06 08:14:55;;;;;;;8.57;3.77;;;2.60;99.90;;;;;;4454905;32;20146;-69
2022/02/06 08:17:24;;;;;;;7.90;3.90;;;2.60;99.90;;;;;;4441105;32;20174;-69
2022/02/06 08:19:52;;;;;;;9.90;3.83;;;2.70;99.90;;;;;;4440960;32;20174;-69
2022/02/06 08:22:21;;;;;;;6.80;4.03;;;2.70;99.90;;;;;;4440564;32;20182;-69
2022/02/06 08:24:49;;;;;;;8.23;4.27;;;2.60;99.90;;;;;;4441837;32;20208;-69
2022/02/06 08:27:21;;;;;;;9.27;3.87;;;2.60;99.90;;;;;;4456984;32;20173;-69
2022/02/06 08:29:48;;;;;;;7.87;4.13;;;2.70;99.90;;;;;;4440725;32;20174;-68
2022/02/06 08:32:17;;;;;;;7.77;3.70;;;2.70;99.90;;;;;;4440420;32;20537;-69
2022/02/06 08:34:47;;;;;;;8.97;3.67;;;2.80;99.90;;;;;;4441989;32;20231;-68
2022/02/06 08:37:14;;;;;;;9.33;4.00;;;2.80;99.90;;;;;;4440357;32;20236;-69
2022/02/06 08:39:42;;;;;;;10.60;4.00;;;2.90;99.90;;;;;;4429663;32;20238;-69
2022/02/06 08:42:11;;;;;;;10.73;4.30;;;2.90;99.90;;;;;;4440252;32;20177;-69
2022/02/06 08:44:40;;;;;;;7.40;4.07;;;3.00;99.90;;;;;;4441805;32;20177;-69
2022/02/06 08:47:09;;;;;;;10.03;4.10;;;3.00;99.90;;;;;;4442042;32;20174;-69
2022/02/06 08:49:37;;;;;;;10.70;4.20;;;3.00;99.90;;;;;;4441897;32;20174;-68
2022/02/06 08:52:05;;;;;;;10.30;4.23;;;3.10;99.90;;;;;;4454486;32;20531;-69
2022/02/06 08:54:34;;;;;;;8.30;4.00;;;3.10;99.90;;;;;;4440961;32;20441;-69
2022/02/06 08:57:28;;;;;;;7.00;3.70;;;3.10;99.90;;;;;;4441698;32;20225;-68
2022/02/06 08:59:56;;;;;;;8.17;4.10;;;3.10;99.90;;;;;;4440278;32;20220;-69
2022/02/06 09:02:24;;;;;;;9.07;3.90;;;3.20;99.90;;;;;;4438745;32;20208;-69
2022/02/06 09:04:51;;;;;;;8.67;3.93;;;3.20;99.90;;;;;;4439422;32;20161;-69
2022/02/06 09:07:20;;;;;;;8.10;4.00;;;3.30;99.90;;;;;;4438101;32;20217;-69
2022/02/06 09:09:54;;;;;;;7.27;4.03;;;3.30;99.90;;;;;;4438913;32;20186;-69
2022/02/06 09:12:21;;;;;;;7.27;3.67;;;3.40;99.90;;;;;;4437704;32;20437;-68
2022/02/06 09:14:49;;;;;;;7.93;3.63;;;3.40;99.90;;;;;;4437864;32;20182;-70
2022/02/06 09:17:16;;;;;;;9.37;4.10;;;3.50;99.90;;;;;;4437904;32;20179;-69
2022/02/06 09:19:44;;;;;;;6.57;3.53;;;3.50;99.90;;;;;;4437038;32;20540;-69
2022/02/06 09:22:11;;;;;;;6.20;3.73;;;3.40;99.90;;;;;;4438813;32;20205;-69
2022/02/06 09:24:38;;;;;;;8.27;3.80;;;3.50;99.90;;;;;;4437966;32;20236;-69
2022/02/06 09:27:09;;;;;;;6.70;3.93;;;3.50;99.90;;;;;;4437942;32;20582;-69
2022/02/06 09:29:38;;;;;;;8.20;3.90;;;3.50;99.90;;;;;;4439803;32;20429;-68
2022/02/06 09:37:27;;;;;;;8.13;3.83;;;3.50;99.90;;;;;;4439300;32;20407;-69
2022/02/06 09:39:56;;;;;;;6.47;3.57;;;3.40;99.90;;;;;;4440962;32;20165;-68
2022/02/06 09:42:25;;;;;;;8.10;3.80;;;3.40;99.90;;;;;;4437421;32;20508;-69
2022/02/06 09:44:53;;;;;;;8.80;4.00;;;3.40;99.90;;;;;;4439015;32;20186;-69
2022/02/06 09:47:29;;;;;;;6.77;3.63;;;3.50;99.90;;;;;;4438121;32;20227;-69
2022/02/06 09:49:59;;;;;;;6.07;3.60;;;3.50;99.90;;;;;;4436947;32;20521;-69
2022/02/06 09:52:28;;;;;;;6.60;3.77;;;3.60;99.90;;;;;;4437897;32;20174;-69
2022/02/06 09:55:01;;;;;;;6.33;3.60;;;3.60;99.90;;;;;;4437928;32;20512;-68
2022/02/06 09:57:39;;;;;;;7.93;3.93;;;3.70;99.90;;;;;;4439595;32;20150;-68
2022/02/06 10:00:07;;;;;;;7.30;3.40;;;3.70;99.90;;;;;;4437094;32;20183;-70
2022/02/06 10:02:36;;;;;;;4.97;3.17;;;3.80;99.90;;;;;;4437789;32;20177;-69
2022/02/06 10:05:05;;;;;;;7.47;3.30;;;3.80;99.90;;;;;;4439784;32;20163;-69
2022/02/06 10:07:53;;;;;;;7.07;3.47;;;3.90;99.90;;;;;;4440091;32;20225;-69
2022/02/06 10:10:22;;;;;;;5.33;3.23;;;3.90;99.90;;;;;;4440080;32;20593;-69
2022/02/06 10:12:52;;;;;;;5.47;3.37;;;3.90;99.90;;;;;;4441621;32;20454;-69
2022/02/06 10:15:19;;;;;;;5.67;3.47;;;3.80;99.90;;;;;;4441335;32;20514;-69
2022/02/06 10:17:49;;;;;;;8.30;4.00;;;3.90;99.90;;;;;;4439955;32;20178;-69
2022/02/06 10:20:23;;;;;;;5.93;3.20;;;3.90;99.90;;;;;;4440396;32;20170;-69
2022/02/06 10:22:56;;;;;;;6.20;3.27;;;3.90;99.90;;;;;;4440899;32;20137;-69
2022/02/06 10:25:22;;;;;;;4.10;3.20;;;3.90;99.90;;;;;;4440561;32;20174;-69
2022/02/06 10:28:03;;;;;;;4.20;2.87;;;3.90;99.90;;;;;;4440448;32;20520;-68
2022/02/06 10:30:44;;;;;;;4.93;3.30;;;3.90;99.90;;;;;;4446928;32;20162;-69
2022/02/06 10:33:22;;;;;;;5.57;3.20;;;3.90;99.90;;;;;;4444221;32;20169;-68
2022/02/06 10:35:54;;;;;;;6.70;3.17;;;3.90;99.90;;;;;;4441931;32;20184;-69
2022/02/06 10:38:29;;;;;;;5.33;3.60;;;3.90;99.90;;;;;;4442498;32;20230;-69
2022/02/06 10:41:11;;;;;;;6.60;3.63;;;3.80;99.90;;;;;;4441944;32;20197;-69
2022/02/06 10:44:05;;;;;;;3.77;3.10;;;3.80;99.90;;;;;;4442054;32;20427;-69
2022/02/06 10:46:44;;;;;;;4.73;3.20;;;3.90;99.90;;;;;;4442388;32;20192;-68
2022/02/06 10:49:17;;;;;;;5.77;3.20;;;3.90;99.90;;;;;;4443026;32;20178;-68
2022/02/06 10:51:52;;;;;;;5.83;3.80;;;4.00;99.90;;;;;;4441764;32;20178;-69
2022/02/06 10:54:41;;;;;;;5.13;3.43;;;4.00;99.90;;;;;;4441684;32;20257;-69
2022/02/06 10:57:10;;;;;;;6.93;3.40;;;4.00;99.90;;;;;;4457118;32;20473;-69
2022/02/06 10:59:43;;;;;;;5.43;3.43;;;4.10;99.90;;;;;;4441943;32;20193;-69
2022/02/06 11:02:19;;;;;;;5.63;3.60;;;4.10;99.90;;;;;;4442044;32;20200;-69
2022/02/06 11:04:59;;;;;;;5.10;3.20;;;4.10;99.90;;;;;;4457813;32;20141;-68
2022/02/06 11:07:27;;;;;;;4.77;3.23;;;4.10;99.90;;;;;;4456515;32;20134;-69
2022/02/06 11:10:09;;;;;;;4.83;3.27;;;4.10;99.90;;;;;;4457475;32;20407;-69
2022/02/06 11:12:36;;;;;;;5.87;3.30;;;4.10;99.90;;;;;;4429503;32;20220;-69
2022/02/06 11:15:04;;;;;;;6.07;3.20;;;4.10;99.90;;;;;;4440178;32;20202;-69
2022/02/06 11:17:36;;;;;;;5.00;3.30;;;4.20;99.90;;;;;;4451765;32;20170;-69
2022/02/06 11:20:10;;;;;;;5.73;3.70;;;4.20;99.90;;;;;;4454418;32;20178;-69
2022/02/06 11:22:50;;;;;;;6.00;3.57;;;4.20;99.90;;;;;;4455629;32;20257;-69
2022/02/06 11:25:18;;;;;;;4.33;3.00;;;4.30;99.90;;;;;;4456663;32;20165;-69
2022/02/06 11:27:45;;;;;;;5.30;3.20;;;4.30;99.90;;;;;;4455823;32;20232;-69
2022/02/06 11:30:12;;;;;;;6.00;3.27;;;4.30;99.90;;;;;;4455325;32;20194;-68
2022/02/06 11:32:41;;;;;;;5.90;3.50;;;4.30;99.90;;;;;;4455076;32;20182;-69
2022/02/06 11:35:14;;;;;;;5.20;3.33;;;4.30;99.90;;;;;;4455980;32;20171;-69
2022/02/06 11:43:56;;;;;;;4.93;3.03;;;4.30;99.90;;;;;;4455185;32;20161;-69
2022/02/06 11:46:38;;;;;;;5.77;3.60;;;4.30;99.90;;;;;;4456855;32;20168;-68
2022/02/06 11:49:11;;;;;;;4.80;3.20;;;4.30;99.90;;;;;;4455935;32;20165;-68
2022/02/06 11:51:56;;;;;;;5.97;3.40;;;4.30;99.90;;;;;;4455706;32;20186;-69
2022/02/06 11:54:31;;;;;;;4.27;3.30;;;4.30;99.90;;;;;;4454951;32;20226;-69
2022/02/06 11:57:24;;;;;;;4.60;3.40;;;4.40;99.90;;;;;;4456526;32;20134;-68
2022/02/06 12:00:04;;;;;;;4.53;3.33;;;4.40;99.90;;;;;;4455464;32;20169;-69
2022/02/06 12:02:36;;;;;;;5.63;3.50;;;4.40;99.90;;;;;;4453878;32;20169;-68
2022/02/06 12:05:16;;;;;;;4.93;3.30;;;4.40;99.90;;;;;;4453828;32;20198;-68
2022/02/06 12:07:55;;;;;;;4.70;3.00;;;4.40;99.90;;;;;;4453681;32;20250;-68
2022/02/06 12:10:48;;;;;;;3.93;3.00;;;4.40;99.90;;;;;;4453251;32;20231;-67
2022/02/06 12:13:26;;;;;;;4.33;2.90;;;4.40;99.90;;;;;;4455136;32;20194;-68
2022/02/06 12:16:00;;;;;;;5.20;2.90;;;4.50;99.90;;;;;;4453610;32;20170;-68
2022/02/06 12:18:30;;;;;;;4.37;3.10;;;4.50;99.90;;;;;;4455187;32;20143;-68
2022/02/06 12:21:13;;;;;;;3.97;2.90;;;4.60;99.90;;;;;;4452814;32;20213;-69
2022/02/06 12:23:41;;;;;;;4.73;2.97;;;4.60;99.90;;;;;;4447673;32;20204;-68
2022/02/06 12:26:27;;;;;;;4.30;2.83;;;4.70;99.90;;;;;;4454603;32;20172;-68
2022/02/06 12:29:22;;;;;;;5.70;2.97;;;4.70;99.90;;;;;;4440550;32;20241;-69
2022/02/06 12:32:00;;;;;;;4.73;3.20;;;4.70;99.90;;;;;;4441104;32;20204;-69
2022/02/06 12:37:28;;;;;;;4.10;2.80;;;4.70;99.90;;;;;;4442297;32;20178;-69
2022/02/06 12:39:57;;;;;;;4.27;2.77;;;4.70;99.90;;;;;;4440670;32;20196;-69
2022/02/06 12:42:49;;;;;;;4.23;2.80;;;4.80;99.90;;;;;;4440812;32;20201;-69
2022/02/06 12:45:21;;;;;;;4.47;2.83;;;4.90;99.90;;;;;;4441873;32;20190;-69
2022/02/06 12:47:51;;;;;;;4.47;2.90;;;4.90;99.90;;;;;;4440606;32;20174;-69
2022/02/06 12:50:30;;;;;;;5.40;2.70;;;4.90;99.90;;;;;;4440187;32;20181;-70
2022/02/06 12:52:58;;;;;;;3.83;2.43;;;4.80;99.90;;;;;;4440073;32;20219;-69
2022/02/06 12:55:33;;;;;;;7.13;3.10;;;4.80;99.90;;;;;;4439718;32;20492;-69
2022/02/06 12:58:01;;;;;;;5.90;3.10;;;4.80;99.90;;;;;;4441776;32;20166;-69
2022/02/06 13:00:30;;;;;;;4.73;2.90;;;4.80;99.90;;;;;;4438134;32;20555;-69
2022/02/06 13:03:30;;;;;;;4.90;2.83;;;4.80;99.90;;;;;;4439904;32;20171;-70
2022/02/06 13:06:05;;;;;;;3.47;2.70;;;4.70;99.90;;;;;;4441823;32;20238;-68
2022/02/06 13:08:38;;;;;;;5.20;3.07;;;4.70;99.90;;;;;;4454445;32;20387;-69
2022/02/06 13:11:20;;;;;;;4.50;3.10;;;4.70;99.90;;;;;;4440079;32;20248;-69
2022/02/06 13:14:47;;;;;;;4.40;2.93;;;4.70;99.90;;;;;;4454820;32;20180;-68
2022/02/06 13:22:33;;;;;;;4.57;3.10;;;4.60;99.90;;;;;;4439590;32;20201;-68
2022/02/06 13:25:19;;;;;;;5.80;2.93;;;4.60;99.90;;;;;;4439529;32;20411;-68
2022/02/06 13:33:57;;;;;;;4.60;3.07;;;4.60;99.90;;;;;;4440144;32;20173;-68
2022/02/06 13:36:43;;;;;;;4.07;2.80;;;4.60;99.90;;;;;;4454103;32;20384;-70
2022/02/06 13:39:36;;;;;;;4.43;3.20;;;4.60;99.90;;;;;;4443289;32;20226;-66
2022/02/06 13:42:17;;;;;;;4.70;3.23;;;4.60;99.90;;;;;;4457263;32;20176;-68
2022/02/06 13:45:01;;;;;;;3.60;2.90;;;4.60;99.90;;;;;;4443926;32;20252;-69
2022/02/06 13:47:28;;;;;;;3.63;2.83;;;4.60;99.90;;;;;;4444434;32;20198;-68
2022/02/06 13:49:59;;;;;;;5.67;3.27;;;4.60;99.90;;;;;;4457287;32;20143;-67
2022/02/06 13:52:28;;;;;;;4.17;2.73;;;4.60;99.90;;;;;;4443344;32;20209;-66
2022/02/06 13:54:55;;;;;;;4.67;3.03;;;4.50;99.90;;;;;;4442784;32;20204;-68
2022/02/06 13:57:23;;;;;;;3.93;2.90;;;4.60;99.90;;;;;;4441666;32;20222;-68
2022/02/06 13:59:51;;;;;;;4.43;2.97;;;4.60;99.90;;;;;;4441644;32;20158;-68
2022/02/06 14:02:18;;;;;;;4.27;2.70;;;4.60;99.90;;;;;;4441791;32;20179;-68
2022/02/06 14:04:49;;;;;;;4.33;3.10;;;4.60;99.90;;;;;;4440113;32;20189;-67
2022/02/06 14:07:21;;;;;;;4.77;3.20;;;4.60;99.90;;;;;;4440501;32;20190;-68
2022/02/06 14:12:26;;;;;;;4.87;3.00;;;4.60;99.90;;;;;;4441824;32;20179;-66
2022/02/06 14:14:58;;;;;;;6.07;3.30;;;4.60;99.90;;;;;;4441382;32;20425;-67
2022/02/06 14:17:38;;;;;;;6.03;2.87;;;4.60;99.90;;;;;;4441837;32;20227;-68
2022/02/06 14:20:09;;;;;;;3.90;2.60;;;4.60;99.90;;;;;;4442966;32;20134;-68
2022/02/06 14:22:37;;;;;;;4.77;3.10;;;4.60;99.90;;;;;;4439994;32;20206;-68
2022/02/06 14:25:08;;;;;;;4.83;3.03;;;4.60;99.90;;;;;;4441230;32;20172;-67
2022/02/06 14:27:39;;;;;;;4.03;2.73;;;4.70;99.90;;;;;;4440079;32;20301;-65
2022/02/06 14:30:15;;;;;;;4.87;3.10;;;4.60;99.90;;;;;;4441960;32;20187;-68
2022/02/06 14:33:15;;;;;;;4.90;3.00;;;4.60;99.90;;;;;;4439190;32;20220;-67
2022/02/06 14:35:51;;;;;;;3.97;2.90;;;4.60;99.90;;;;;;4432054;32;20185;-66
2022/02/06 14:38:38;;;;;;;4.77;3.17;;;4.60;99.90;;;;;;4439633;32;20455;-67
2022/02/06 14:43:56;;;;;;;5.57;3.10;;;4.60;99.90;;;;;;4439503;32;20254;-67
2022/02/06 14:46:24;;;;;;;5.60;3.00;;;4.60;99.90;;;;;;4441339;32;20478;-69
2022/02/06 14:48:51;;;;;;;5.40;3.37;;;4.60;99.90;;;;;;4440646;32;20171;-69
2022/02/06 14:51:22;;;;;;;4.47;3.20;;;4.70;99.90;;;;;;4439039;32;20227;-69
2022/02/06 14:53:55;;;;;;;6.47;3.03;;;4.70;99.90;;;;;;4441601;32;20181;-69
2022/02/06 14:56:24;;;;;;;4.83;3.30;;;4.70;99.90;;;;;;4439115;32;20182;-68
2022/02/06 14:58:51;;;;;;;5.47;3.40;;;4.70;99.90;;;;;;4439509;32;20186;-69
2022/02/06 15:01:18;;;;;;;4.40;3.40;;;4.70;99.90;;;;;;4440379;32;20201;-68
2022/02/06 15:03:44;;;;;;;4.70;3.40;;;4.60;99.90;;;;;;4452007;32;20182;-69
2022/02/06 15:06:11;;;;;;;5.20;3.33;;;4.60;99.90;;;;;;4439181;32;20284;-69
2022/02/06 15:08:38;;;;;;;5.20;3.60;;;4.60;99.90;;;;;;4440933;32;20547;-69
2022/02/06 15:11:06;;;;;;;5.47;3.80;;;4.50;99.90;;;;;;4441831;32;20421;-69
2022/02/06 15:13:33;;;;;;;6.97;4.20;;;4.50;99.90;;;;;;4440686;32;20209;-68
2022/02/06 15:16:06;;;;;;;5.60;4.00;;;4.40;99.90;;;;;;4441245;32;20181;-69
2022/02/06 15:18:36;;;;;;;5.37;3.50;;;4.30;99.90;;;;;;4443197;32;20174;-69
2022/02/06 15:21:05;;;;;;;8.97;4.13;;;4.30;99.90;;;;;;4457070;32;20174;-69
2022/02/06 15:23:38;;;;;;;6.73;3.83;;;4.20;99.90;;;;;;4443233;32;20320;-68
2022/02/06 15:26:06;;;;;;;7.07;4.70;;;4.10;99.90;;;;;;4455818;32;20188;-68
2022/02/06 15:28:33;;;;;;;6.67;4.33;;;4.10;99.90;;;;;;4455661;32;20150;-69
2022/02/06 15:31:00;;;;;;;7.17;4.33;;;4.10;99.90;;;;;;4441045;32;20195;-69
2022/02/06 15:33:26;;;;;;;7.30;4.20;;;4.00;99.90;;;;;;4457033;32;20237;-69
2022/02/06 15:35:53;;;;;;;10.47;4.97;;;4.00;99.90;;;;;;4451980;32;20172;-69
2022/02/06 15:38:22;;;;;;;8.17;4.60;;;4.00;99.90;;;;;;4438402;32;20179;-68
2022/02/06 15:40:50;;;;;;;9.13;4.70;;;4.00;99.90;;;;;;4438469;32;20186;-68
2022/02/06 15:43:17;;;;;;;7.70;4.57;;;4.00;99.90;;;;;;4438366;32;20217;-68
2022/02/06 15:45:45;;;;;;;7.27;4.50;;;4.00;99.90;;;;;;4438833;32;20197;-67
2022/02/06 15:48:12;;;;;;;8.50;5.03;;;4.00;99.90;;;;;;4440366;32;20220;-69
2022/02/06 15:50:39;;;;;;;9.07;4.77;;;4.00;99.90;;;;;;4440110;32;20408;-68
2022/02/06 15:53:06;;;;;;;7.60;4.57;;;4.00;99.90;;;;;;4440275;32;20183;-68
2022/02/06 15:55:33;;;;;;;6.07;4.40;;;4.00;99.90;;;;;;4440588;32;20177;-69
2022/02/06 15:58:04;;;;;;;5.70;4.37;;;4.10;99.90;;;;;;4438476;32;20461;-68
2022/02/06 16:00:30;;;;;;;5.63;4.13;;;4.10;99.90;;;;;;4437884;32;20187;-68
2022/02/06 16:02:57;;;;;;;7.90;4.10;;;4.10;99.90;;;;;;4440212;32;20236;-68
2022/02/06 16:05:25;;;;;;;6.73;4.50;;;4.10;99.90;;;;;;4439802;32;20193;-68
2022/02/06 16:07:52;;;;;;;6.80;4.40;;;4.10;99.90;;;;;;4438141;32;20548;-69